Time;durP1;ratioP1;P1;durP2;ratioP2;P2;SDS_P1;SDS_P2;PMS_P1;PMS_P2;Temp;Humidity;BMP_temperature;BMP_pressure;BME280_temperature;BME280_humidity;BME280_pressure;Samples;Min_cycle;Max_cycle;Signal;HPM_P1;HPM_P2
2023/09/17 00:01:05;;;;;;;39.53;31.02;;;;;;;16.92;100.00;101287.53;5069930;28;20021;-76
2023/09/17 00:03:30;;;;;;;38.55;28.77;;;;;;;16.85;100.00;101293.03;5057898;28;20028;-76
2023/09/17 00:05:56;;;;;;;37.40;27.17;;;;;;;16.78;100.00;101293.38;5067463;28;20021;-76
2023/09/17 00:08:21;;;;;;;36.00;29.33;;;;;;;16.70;100.00;101285.75;5057135;28;20051;-76
2023/09/17 00:10:46;;;;;;;34.15;27.38;;;;;;;16.75;100.00;101289.09;5066563;28;20024;-76
2023/09/17 00:13:12;;;;;;;31.77;26.50;;;;;;;16.70;100.00;101284.91;5057460;28;20051;-76
2023/09/17 00:15:37;;;;;;;32.63;26.45;;;;;;;16.61;100.00;101292.28;5067965;28;20054;-76
2023/09/17 00:18:03;;;;;;;33.85;26.63;;;;;;;16.66;100.00;101288.59;5062341;28;20396;-75
2023/09/17 00:20:28;;;;;;;32.38;26.35;;;;;;;16.59;100.00;101290.63;5055748;28;20072;-76
2023/09/17 00:22:53;;;;;;;30.10;24.15;;;;;;;16.52;100.00;101286.53;5065315;28;20357;-76
2023/09/17 00:25:19;;;;;;;31.95;25.33;;;;;;;16.47;100.00;101291.09;5069507;28;20368;-76
2023/09/17 00:27:44;;;;;;;27.88;24.80;;;;;;;16.36;100.00;101275.78;5060335;28;20036;-76
2023/09/17 00:30:10;;;;;;;33.05;24.33;;;;;;;16.51;100.00;101301.47;5065422;28;20494;-76
2023/09/17 00:32:35;;;;;;;28.30;25.15;;;;;;;16.48;100.00;101292.81;5063461;28;20025;-76
2023/09/17 00:35:01;;;;;;;30.60;24.77;;;;;;;16.48;100.00;101296.34;5058881;28;20031;-76
2023/09/17 00:37:26;;;;;;;33.60;24.30;;;;;;;16.42;100.00;101288.69;5066184;28;20017;-76
2023/09/17 00:39:51;;;;;;;27.85;23.23;;;;;;;16.36;100.00;101292.41;5062412;28;20036;-76
2023/09/17 00:42:17;;;;;;;25.58;22.00;;;;;;;16.29;100.00;101284.84;5068942;28;20025;-76
2023/09/17 00:44:42;;;;;;;28.63;22.80;;;;;;;16.32;100.00;101293.47;5061356;28;20017;-75
2023/09/17 00:47:08;;;;;;;30.23;22.95;;;;;;;16.29;100.00;101290.09;5069223;28;20032;-76
2023/09/17 00:49:34;;;;;;;26.10;21.50;;;;;;;16.19;100.00;101275.59;5061147;28;20041;-76
2023/09/17 00:52:01;;;;;;;26.55;21.63;;;;;;;16.18;100.00;101282.59;5069463;28;20480;-75
2023/09/17 00:54:28;;;;;;;26.73;21.92;;;;;;;16.18;100.00;101281.75;5061178;28;20029;-75
2023/09/17 00:56:56;;;;;;;30.30;23.08;;;;;;;16.20;100.00;101272.03;5061959;28;20043;-76
2023/09/17 00:59:21;;;;;;;27.23;22.40;;;;;;;16.15;100.00;101269.56;5067575;28;20036;-76
2023/09/17 01:01:46;;;;;;;25.92;21.83;;;;;;;16.15;100.00;101273.09;5060722;28;20032;-76
2023/09/17 01:04:14;;;;;;;27.38;21.65;;;;;;;16.16;100.00;101271.31;5067667;28;20032;-76
2023/09/17 01:06:41;;;;;;;26.98;21.58;;;;;;;16.17;100.00;101277.41;5060942;28;20033;-76
2023/09/17 01:09:09;;;;;;;27.85;21.05;;;;;;;16.15;100.00;101269.56;5066212;28;20071;-76
2023/09/17 01:11:35;;;;;;;25.63;21.25;;;;;;;16.10;100.00;101261.03;5061245;28;20152;-76
2023/09/17 01:14:15;;;;;;;25.67;21.70;;;;;;;16.14;100.00;101271.34;5065531;28;20371;-76
2023/09/17 01:16:47;;;;;;;25.60;21.00;;;;;;;16.09;100.00;101268.06;5060630;28;20115;-76
2023/09/17 01:19:26;;;;;;;27.92;21.90;;;;;;;16.10;100.00;101264.50;5066228;28;20423;-76
2023/09/17 01:22:01;;;;;;;25.42;22.25;;;;;;;16.03;100.00;101260.41;5057245;28;20025;-77
2023/09/17 01:24:40;;;;;;;26.15;21.88;;;;;;;15.91;100.00;101251.22;5067644;28;20107;-77
2023/09/17 01:27:06;;;;;;;28.88;22.63;;;;;;;15.88;100.00;101242.59;5058780;28;20032;-77
2023/09/17 01:29:35;;;;;;;26.10;22.38;;;;;;;15.89;100.00;101246.94;5067892;28;20039;-77
2023/09/17 01:32:00;;;;;;;30.35;22.90;;;;;;;15.86;100.00;101247.09;5056254;28;20100;-77
2023/09/17 01:34:27;;;;;;;31.55;24.73;;;;;;;15.81;100.00;101239.34;5067248;28;20056;-77
2023/09/17 01:36:57;;;;;;;31.67;23.83;;;;;;;15.77;100.00;101250.91;5061719;28;20028;-77
2023/09/17 01:39:27;;;;;;;30.08;23.67;;;;;;;15.81;100.00;101249.03;5066137;28;20060;-77
2023/09/17 01:41:53;;;;;;;32.10;23.23;;;;;;;15.79;100.00;101240.31;5063005;28;20052;-77
2023/09/17 01:44:20;;;;;;;30.58;23.63;;;;;;;15.69;100.00;101231.94;5064286;28;20024;-77
2023/09/17 01:46:45;;;;;;;26.00;22.45;;;;;;;15.69;100.00;101231.94;5063752;28;20037;-77
2023/09/17 01:49:12;;;;;;;31.40;22.83;;;;;;;15.60;100.00;101219.16;5063610;28;20070;-77
2023/09/17 01:51:41;;;;;;;26.98;22.52;;;;;;;15.45;100.00;101205.66;5063075;28;20029;-77
2023/09/17 01:54:07;;;;;;;29.50;23.73;;;;;;;15.51;100.00;101211.59;5062691;28;20111;-77
2023/09/17 01:56:37;;;;;;;30.73;23.75;;;;;;;15.58;100.00;101227.06;5062575;28;20035;-77
2023/09/17 01:59:04;;;;;;;28.35;24.40;;;;;;;15.52;100.00;101221.19;5063255;28;20027;-77
2023/09/17 02:01:30;;;;;;;28.23;22.52;;;;;;;15.52;100.00;101203.66;5053650;28;20044;-77
2023/09/17 02:03:55;;;;;;;28.58;23.83;;;;;;;15.56;100.00;101226.25;5062212;28;20017;-77
2023/09/17 02:06:20;;;;;;;29.02;23.65;;;;;;;15.58;100.00;101210.44;5061313;28;20033;-77
2023/09/17 02:08:45;;;;;;;28.80;23.00;;;;;;;15.57;100.00;101217.47;5061969;28;20033;-77
2023/09/17 02:11:11;;;;;;;32.63;24.60;;;;;;;15.63;100.00;101224.25;5061379;28;20096;-77
2023/09/17 02:13:36;;;;;;;33.22;24.65;;;;;;;15.60;100.00;101222.63;5062865;28;20529;-77
2023/09/17 02:16:02;;;;;;;27.92;23.80;;;;;;;15.65;100.00;101233.81;5063758;28;20024;-77
2023/09/17 02:18:27;;;;;;;30.80;23.85;;;;;;;15.66;100.00;101232.94;5060486;28;20048;-77
2023/09/17 02:20:53;;;;;;;30.55;24.02;;;;;;;15.68;100.00;101227.59;5063673;28;20075;-77
2023/09/17 02:23:18;;;;;;;33.53;24.58;;;;;;;15.60;100.00;101209.50;5063049;28;20013;-77
2023/09/17 02:25:43;;;;;;;31.65;25.58;;;;;;;15.66;100.00;101208.38;5061506;28;20033;-77
2023/09/17 02:28:09;;;;;;;33.47;25.50;;;;;;;15.67;100.00;101213.63;5064045;28;20024;-77
2023/09/17 02:30:34;;;;;;;34.15;24.42;;;;;;;15.62;100.00;101186.59;5062828;28;20021;-77
2023/09/17 02:32:59;;;;;;;34.95;27.58;;;;;;;15.72;100.00;101207.31;5062675;28;20064;-77
2023/09/17 02:35:25;;;;;;;32.65;26.35;;;;;;;15.70;100.00;101210.03;5065170;28;20025;-77
2023/09/17 02:37:50;;;;;;;38.25;27.48;;;;;;;15.72;100.00;101202.06;5061633;28;20484;-76
2023/09/17 02:40:16;;;;;;;37.63;26.95;;;;;;;15.78;100.00;101197.41;5066390;28;20063;-77
2023/09/17 02:42:44;;;;;;;38.25;27.40;;;;;;;15.75;100.00;101191.44;5059808;28;20096;-77
2023/09/17 02:45:09;;;;;;;35.13;27.25;;;;;;;15.74;100.00;101200.25;5068799;28;20112;-77
2023/09/17 02:47:35;;;;;;;38.95;28.02;;;;;;;15.72;100.00;101181.88;5059078;28;20214;-77
2023/09/17 02:50:00;;;;;;;39.80;28.25;;;;;;;15.74;100.00;101184.47;5060856;28;20052;-78
2023/09/17 02:52:26;;;;;;;35.92;27.65;;;;;;;15.70;100.00;101185.50;5065013;28;20029;-78
2023/09/17 02:54:55;;;;;;;39.72;28.98;;;;;;;15.72;100.00;101189.78;5059411;28;20021;-77
2023/09/17 02:57:22;;;;;;;39.42;29.23;;;;;;;15.71;100.00;101184.59;5066297;28;20465;-78
2023/09/17 02:59:48;;;;;;;40.88;29.13;;;;;;;15.67;100.00;101184.72;5059639;28;20108;-78
2023/09/17 03:02:14;;;;;;;38.78;29.25;;;;;;;15.58;100.00;101179.78;5065117;28;20443;-77
2023/09/17 03:04:39;;;;;;;39.88;29.65;;;;;;;15.50;100.00;101187.09;5059982;28;20028;-78
2023/09/17 03:07:04;;;;;;;39.65;29.40;;;;;;;15.48;100.00;101182.81;5064124;28;20492;-77
2023/09/17 03:09:30;;;;;;;40.45;30.13;;;;;;;15.42;100.00;101181.28;5069292;28;20117;-77
2023/09/17 03:11:56;;;;;;;41.58;30.73;;;;;;;15.42;100.00;101178.66;5071433;28;20029;-78
2023/09/17 03:14:22;;;;;;;41.33;30.48;;;;;;;15.31;100.00;101179.06;5066801;28;20056;-78
2023/09/17 03:16:48;;;;;;;37.45;28.55;;;;;;;15.23;100.00;101175.84;5074645;28;20094;-77
2023/09/17 03:19:14;;;;;;;41.60;31.55;;;;;;;15.16;100.00;101177.84;5071782;28;20029;-78
2023/09/17 03:21:43;;;;;;;40.63;31.40;;;;;;;15.13;100.00;101191.09;5073087;28;20391;-78
2023/09/17 03:24:09;;;;;;;39.25;30.27;;;;;;;15.05;100.00;101173.94;5071147;28;20108;-77
2023/09/17 03:26:35;;;;;;;40.33;31.40;;;;;;;15.01;100.00;101182.81;5073459;28;20166;-78
2023/09/17 03:29:01;;;;;;;43.17;30.60;;;;;;;15.03;100.00;101196.75;5067967;28;20016;-78
2023/09/17 03:31:26;;;;;;;43.67;31.45;;;;;;;15.09;100.00;101192.13;5066385;28;20040;-77
2023/09/17 03:33:51;;;;;;;43.17;31.58;;;;;;;15.05;100.00;101180.03;5065803;28;20816;-77
2023/09/17 03:36:17;;;;;;;42.03;31.75;;;;;;;14.93;100.00;101172.59;5065940;28;20035;-77
2023/09/17 03:38:42;;;;;;;46.35;32.30;;;;;;;15.02;100.00;101192.41;5065515;28;20024;-77
2023/09/17 03:41:07;;;;;;;45.17;31.92;;;;;;;14.91;100.00;101179.66;5063924;28;20032;-77
2023/09/17 03:43:34;;;;;;;45.42;33.00;;;;;;;14.95;100.00;101183.91;5065529;28;20032;-77
2023/09/17 03:46:06;;;;;;;45.95;34.42;;;;;;;14.99;100.00;101185.50;5063289;28;20389;-77
2023/09/17 03:48:32;;;;;;;43.88;32.85;;;;;;;14.99;100.00;101186.34;5066175;28;20044;-77
2023/09/17 03:50:59;;;;;;;44.67;33.08;;;;;;;14.92;100.00;101178.78;5062999;28;20064;-77
2023/09/17 03:53:24;;;;;;;45.10;32.55;;;;;;;14.90;100.00;101183.22;5066117;28;20395;-77
2023/09/17 03:55:50;;;;;;;44.78;33.70;;;;;;;14.92;100.00;101181.38;5064532;28;20020;-77
2023/09/17 03:58:16;;;;;;;45.92;34.08;;;;;;;14.94;100.00;101195.31;5064632;28;20039;-77
2023/09/17 04:00:45;;;;;;;46.22;34.33;;;;;;;14.98;100.00;101189.91;5065727;28;20439;-76
2023/09/17 04:03:14;;;;;;;48.38;35.00;;;;;;;14.96;100.00;101180.38;5063702;28;20122;-76
2023/09/17 04:05:40;;;;;;;46.95;35.10;;;;;;;14.95;100.00;101168.16;5064941;28;20020;-77
2023/09/17 04:08:05;;;;;;;49.55;35.08;;;;;;;15.04;100.00;101183.59;5064431;28;20036;-77
2023/09/17 04:10:31;;;;;;;48.67;35.03;;;;;;;15.07;100.00;101185.22;5064331;28;21012;-76
2023/09/17 04:12:56;;;;;;;49.70;35.35;;;;;;;14.99;100.00;101180.25;5066242;28;20029;-77
2023/09/17 04:15:24;;;;;;;43.95;33.55;;;;;;;15.03;100.00;101181.00;5063206;28;20075;-76
2023/09/17 04:17:53;;;;;;;48.08;34.72;;;;;;;15.07;100.00;101187.84;5067158;28;20032;-77
2023/09/17 04:20:19;;;;;;;47.20;34.08;;;;;;;15.08;100.00;101182.56;5062553;28;20392;-76
2023/09/17 04:22:49;;;;;;;51.17;36.22;;;;;;;15.13;100.00;101183.22;5068829;28;20025;-76
2023/09/17 04:25:15;;;;;;;47.47;34.83;;;;;;;15.09;100.00;101181.63;5061758;28;20039;-76
2023/09/17 04:27:44;;;;;;;45.05;34.90;;;;;;;15.06;100.00;101179.09;5063987;28;20472;-76
2023/09/17 04:30:11;;;;;;;48.72;34.78;;;;;;;15.07;100.00;101178.19;5068615;28;20021;-76
2023/09/17 04:32:37;;;;;;;47.45;34.47;;;;;;;14.97;100.00;101166.31;5058965;28;20049;-77
2023/09/17 04:35:07;;;;;;;45.63;35.15;;;;;;;14.99;100.00;101177.63;5065376;28;20173;-76
2023/09/17 04:37:37;;;;;;;48.30;34.20;;;;;;;15.03;100.00;101181.84;5063319;28;20045;-77
2023/09/17 04:40:13;;;;;;;53.90;37.58;;;;;;;15.09;100.00;101179.00;5064614;28;20017;-76
2023/09/17 04:42:40;;;;;;;51.08;36.42;;;;;;;15.05;100.00;101171.31;5063207;28;20029;-76
2023/09/17 04:45:06;;;;;;;52.88;37.30;;;;;;;15.08;100.00;101174.66;5064717;28;20464;-76
2023/09/17 04:47:36;;;;;;;53.13;38.08;;;;;;;15.12;100.00;101181.50;5063610;28;20063;-77
2023/09/17 04:50:09;;;;;;;51.08;36.47;;;;;;;15.02;100.00;101169.63;5063271;28;20037;-76
2023/09/17 04:52:38;;;;;;;49.47;35.67;;;;;;;15.01;100.00;101165.31;5064661;28;20033;-77
2023/09/17 04:55:05;;;;;;;49.88;35.58;;;;;;;15.01;100.00;101180.19;5061847;28;20075;-77
2023/09/17 04:57:30;;;;;;;48.78;36.47;;;;;;;14.94;100.00;101151.56;5066627;28;20075;-77
2023/09/17 04:59:55;;;;;;;51.70;36.58;;;;;;;14.99;100.00;101167.13;5060869;28;20021;-77
2023/09/17 05:02:21;;;;;;;49.80;37.10;;;;;;;14.99;100.00;101162.72;5068101;28;20111;-76
2023/09/17 05:04:47;;;;;;;53.00;37.47;;;;;;;14.98;100.00;101168.03;5061293;28;20017;-77
2023/09/17 05:07:12;;;;;;;51.15;36.40;;;;;;;15.06;100.00;101173.84;5063565;28;20064;-76
2023/09/17 05:09:37;;;;;;;55.80;37.67;;;;;;;15.09;100.00;101159.75;5063249;28;20351;-77
2023/09/17 05:12:05;;;;;;;56.97;37.75;;;;;;;15.12;100.00;101173.63;5063110;28;20456;-76
2023/09/17 05:14:30;;;;;;;55.67;38.30;;;;;;;15.06;100.00;101168.59;5062025;28;20028;-76
2023/09/17 05:16:56;;;;;;;55.08;38.50;;;;;;;15.12;100.00;101181.50;5062615;28;20379;-77
2023/09/17 05:19:22;;;;;;;58.10;40.22;;;;;;;15.15;100.00;101172.66;5063092;28;20102;-77
2023/09/17 05:21:47;;;;;;;57.60;40.47;;;;;;;15.16;100.00;101177.00;5062285;28;20468;-77
2023/09/17 05:24:13;;;;;;;56.97;40.85;;;;;;;15.17;100.00;101173.44;5068664;28;20028;-77
2023/09/17 05:26:38;;;;;;;56.40;40.60;;;;;;;15.21;100.00;101169.81;5060896;28;20460;-76
2023/09/17 05:29:04;;;;;;;57.97;39.67;;;;;;;15.22;100.00;101177.63;5060583;28;20032;-77
2023/09/17 05:31:30;;;;;;;57.33;40.03;;;;;;;15.20;100.00;101174.22;5068729;28;20468;-76
2023/09/17 05:33:57;;;;;;;57.50;39.28;;;;;;;15.28;100.00;101180.94;5060949;28;20104;-76
2023/09/17 05:36:22;;;;;;;60.58;40.80;;;;;;;15.30;100.00;101181.72;5067974;28;20099;-76
2023/09/17 05:38:47;;;;;;;54.88;39.53;;;;;;;15.28;100.00;101178.31;5060828;28;20563;-77
2023/09/17 05:41:12;;;;;;;54.60;38.35;;;;;;;15.25;100.00;101176.66;5067269;28;20283;-77
2023/09/17 05:43:38;;;;;;;51.72;38.65;;;;;;;15.26;100.00;101183.63;5061652;28;20086;-77
2023/09/17 05:46:04;;;;;;;54.00;38.42;;;;;;;15.34;100.00;101185.97;5065138;28;20028;-77
2023/09/17 05:48:29;;;;;;;59.10;39.80;;;;;;;15.34;100.00;101175.47;5063403;28;20049;-76
2023/09/17 05:50:55;;;;;;;55.17;39.47;;;;;;;15.38;100.00;101177.91;5062605;28;20077;-76
2023/09/17 05:53:20;;;;;;;56.05;40.75;;;;;;;15.41;100.00;101179.56;5064210;28;20032;-76
2023/09/17 05:55:45;;;;;;;63.78;42.00;;;;;;;15.43;100.00;101181.22;5062806;28;20586;-76
2023/09/17 05:58:11;;;;;;;57.83;41.15;;;;;;;15.37;100.00;101172.72;5061404;28;20024;-77
2023/09/17 06:00:36;;;;;;;55.47;38.70;;;;;;;15.46;100.00;101175.84;5063513;28;20379;-77
2023/09/17 06:03:01;;;;;;;57.42;40.67;;;;;;;15.44;100.00;101172.44;5060420;28;20031;-77
2023/09/17 06:05:27;;;;;;;57.15;40.58;;;;;;;15.52;100.00;101168.63;5063735;28;20027;-76
2023/09/17 06:07:52;;;;;;;59.70;41.60;;;;;;;15.50;100.00;101178.34;5060733;28;20036;-76
2023/09/17 06:10:18;;;;;;;57.42;41.05;;;;;;;15.46;100.00;101169.72;5049621;28;20103;-76
2023/09/17 06:12:43;;;;;;;62.08;41.08;;;;;;;15.44;100.00;101180.31;5063213;28;20032;-76
2023/09/17 06:15:09;;;;;;;59.55;40.33;;;;;;;15.48;100.00;101177.56;5061906;28;20028;-76
2023/09/17 06:17:34;;;;;;;56.92;41.88;;;;;;;15.48;100.00;101182.81;5062787;28;20048;-76
2023/09/17 06:19:59;;;;;;;66.30;42.55;;;;;;;15.52;100.00;101180.00;5062507;28;20060;-76
2023/09/17 06:22:25;;;;;;;59.53;42.17;;;;;;;15.54;100.00;101183.44;5062882;28;20507;-76
2023/09/17 06:24:51;;;;;;;62.03;41.33;;;;;;;15.52;100.00;101180.00;5063284;28;20048;-76
2023/09/17 06:27:16;;;;;;;63.90;41.65;;;;;;;15.47;100.00;101181.97;5060950;28;20384;-76
2023/09/17 06:29:41;;;;;;;64.10;41.92;;;;;;;15.51;100.00;101180.94;5063381;28;20013;-76
2023/09/17 06:32:08;;;;;;;64.13;42.72;;;;;;;15.53;100.00;101179.09;5063472;28;20024;-76
2023/09/17 06:34:34;;;;;;;64.45;42.92;;;;;;;15.57;100.00;101185.09;5062040;28;20117;-76
2023/09/17 06:37:01;;;;;;;60.65;43.35;;;;;;;15.54;100.00;101179.97;5065905;28;20091;-76
2023/09/17 06:39:26;;;;;;;61.13;42.22;;;;;;;15.60;100.00;101180.56;5059961;28;20200;-76
2023/09/17 06:41:51;;;;;;;61.08;41.83;;;;;;;15.65;100.00;101185.63;5067549;28;20112;-76
2023/09/17 06:44:18;;;;;;;64.28;42.88;;;;;;;15.65;100.00;101180.38;5060196;28;20068;-76
2023/09/17 06:46:43;;;;;;;63.03;43.20;;;;;;;15.68;100.00;101181.16;5067241;28;20032;-76
2023/09/17 06:49:09;;;;;;;62.55;41.97;;;;;;;15.73;100.00;101182.72;5060320;28;20041;-77
2023/09/17 06:51:35;;;;;;;59.28;42.45;;;;;;;15.75;100.00;101173.88;5071963;28;20480;-76
2023/09/17 06:54:00;;;;;;;64.20;44.25;;;;;;;15.83;100.00;101178.84;5063586;28;20017;-76
2023/09/17 06:56:25;;;;;;;65.32;44.00;;;;;;;15.86;100.00;101176.94;5064163;28;20040;-76
2023/09/17 06:58:51;;;;;;;65.55;44.63;;;;;;;15.90;100.00;101175.06;5069432;28;20036;-77
2023/09/17 07:01:18;;;;;;;66.90;45.13;;;;;;;15.99;100.00;101173.81;5062936;28;20029;-77
2023/09/17 07:03:43;;;;;;;64.75;43.08;;;;;;;15.98;100.00;101178.22;5069281;28;20024;-77
2023/09/17 07:06:08;;;;;;;68.05;44.05;;;;;;;16.04;100.00;101177.97;5064268;28;20071;-77
2023/09/17 07:08:35;;;;;;;62.95;43.83;;;;;;;16.06;100.00;101181.41;5060469;28;20040;-76
2023/09/17 07:11:00;;;;;;;65.47;44.88;;;;;;;16.08;100.00;101181.31;5066195;28;20063;-76
2023/09/17 07:13:27;;;;;;;61.92;42.55;;;;;;;16.12;100.00;101181.16;5064982;28;20044;-76
2023/09/17 07:15:52;;;;;;;61.53;41.95;;;;;;;16.15;100.00;101182.78;5067097;28;20029;-76
2023/09/17 07:18:18;;;;;;;63.83;45.03;;;;;;;16.16;100.00;101176.63;5064829;28;20036;-77
2023/09/17 07:20:43;;;;;;;66.00;44.13;;;;;;;16.18;100.00;101158.97;5065547;28;20024;-76
2023/09/17 07:23:09;;;;;;;69.20;46.65;;;;;;;16.29;100.00;101184.88;5065005;28;20032;-76
2023/09/17 07:25:34;;;;;;;73.15;45.47;;;;;;;16.36;100.00;101175.78;5066326;28;20026;-76
2023/09/17 07:28:04;;;;;;;71.90;47.30;;;;;;;16.45;100.00;101167.50;5065762;28;20460;-76
2023/09/17 07:30:33;;;;;;;70.32;47.25;;;;;;;16.48;100.00;101167.38;5066004;28;20032;-76
2023/09/17 07:32:59;;;;;;;69.95;46.13;;;;;;;16.53;100.00;101173.28;5066773;28;20048;-76
2023/09/17 07:35:24;;;;;;;68.43;46.65;;;;;;;16.52;100.00;101162.84;5065329;28;20086;-76
2023/09/17 07:37:49;;;;;;;67.10;46.53;;;;;;;16.64;100.00;101151.75;5066409;28;20055;-76
2023/09/17 07:40:15;;;;;;;72.07;48.60;;;;;;;16.71;100.00;101169.00;5066543;28;20123;-76
2023/09/17 07:42:40;;;;;;;72.70;47.88;;;;;;;16.78;100.00;101159.09;5064973;28;20495;-76
2023/09/17 07:45:07;;;;;;;73.88;49.92;;;;;;;16.85;100.00;101163.16;5066703;28;20017;-76
2023/09/17 07:47:33;;;;;;;72.53;49.15;;;;;;;16.87;100.00;101168.34;5065725;28;20089;-77
2023/09/17 07:49:58;;;;;;;65.15;48.17;;;;;;;16.92;100.00;101169.00;5065491;28;20492;-76
2023/09/17 07:52:24;;;;;;;65.88;47.05;;;;;;;16.98;100.00;101172.22;5068101;28;20113;-76
2023/09/17 07:54:49;;;;;;;66.90;48.13;;;;;;;16.98;100.00;101160.84;5064106;28;20025;-76
2023/09/17 07:57:14;;;;;;;68.32;47.67;;;;;;;17.02;100.00;101179.06;5065404;28;20461;-76
2023/09/17 07:59:40;;;;;;;68.45;47.65;;;;;;;17.03;100.00;101172.84;5063787;28;20049;-76
2023/09/17 08:02:06;;;;;;;68.53;47.55;;;;;;;17.09;100.00;101183.13;5064448;28;20030;-76
2023/09/17 08:04:32;;;;;;;64.90;46.67;;;;;;;17.16;100.00;101193.38;5064750;28;20029;-76
2023/09/17 08:06:58;;;;;;;64.20;45.10;;;;;;;17.18;100.00;101196.81;5063625;28;20048;-76
2023/09/17 08:09:23;;;;;;;66.35;46.45;;;;;;;17.15;100.00;101195.16;5062722;28;20370;-76
2023/09/17 08:11:49;;;;;;;64.38;46.58;;;;;;;17.14;100.00;101200.53;5061932;28;20369;-76
2023/09/17 08:14:14;;;;;;;65.70;47.33;;;;;;;17.08;100.00;101184.06;5068730;28;20106;-76
2023/09/17 08:16:40;;;;;;;63.38;46.10;;;;;;;17.13;100.00;101185.63;5061324;28;20036;-76
2023/09/17 08:19:06;;;;;;;64.72;45.38;;;;;;;17.14;100.00;101189.97;5068756;28;20027;-76
2023/09/17 08:21:32;;;;;;;59.22;45.72;;;;;;;17.14;100.00;101193.47;5062341;28;20403;-76
2023/09/17 08:23:58;;;;;;;62.63;47.25;;;;;;;17.15;100.00;101183.78;5067103;28;20021;-76
2023/09/17 08:26:27;;;;;;;66.53;46.47;;;;;;;17.34;100.00;101204.88;5063522;28;20037;-76
2023/09/17 08:28:55;;;;;;;65.72;47.25;;;;;;;17.31;100.00;101184.78;5061946;28;20629;-76
2023/09/17 08:31:24;;;;;;;68.63;47.53;;;;;;;17.39;100.00;101185.28;5069656;28;20028;-77
2023/09/17 08:33:50;;;;;;;66.93;46.88;;;;;;;17.53;100.00;101203.09;5062108;28;20021;-76
2023/09/17 08:36:15;;;;;;;68.40;48.08;;;;;;;17.51;100.00;101187.34;5062200;28;20025;-76
2023/09/17 08:38:41;;;;;;;67.40;47.08;;;;;;;17.65;100.00;101188.47;5066118;28;20032;-76
2023/09/17 08:41:06;;;;;;;66.40;48.15;;;;;;;17.77;100.00;101193.19;5067767;28;20543;-76
2023/09/17 08:43:32;;;;;;;66.75;47.70;;;;;;;17.85;100.00;101191.03;5064163;28;20047;-77
2023/09/17 08:46:00;;;;;;;67.40;47.05;;;;;;;17.90;100.00;101193.47;5064747;28;20395;-76
2023/09/17 08:48:26;;;;;;;62.65;47.30;;;;;;;17.93;100.00;101188.91;5064900;28;20048;-76
2023/09/17 08:50:53;;;;;;;67.85;49.60;;;;;;;17.96;100.00;101204.56;5062375;28;20365;-77
2023/09/17 08:53:26;;;;;;;64.75;48.22;;;;;;;18.05;100.00;101202.41;5063998;28;20464;-76
2023/09/17 08:55:54;;;;;;;;;;;;;;;18.24;100.00;101214.63;5063269;28;20404;-76
2023/09/17 08:58:24;;;;;;;72.28;50.35;;;;;;;18.21;100.00;101209.50;5064250;28;20355;-76
2023/09/17 09:00:51;;;;;;;65.75;46.75;;;;;;;18.23;100.00;101209.44;5055033;28;20048;-76
2023/09/17 09:03:20;;;;;;;66.65;49.53;;;;;;;18.24;100.00;101213.75;5063690;28;20033;-77
2023/09/17 09:05:47;;;;;;;72.68;51.78;;;;;;;18.28;100.00;101220.63;5064611;28;20054;-76
2023/09/17 09:08:13;;;;;;;69.28;47.40;;;;;;;18.19;100.00;101224.56;5056656;28;20066;-77
2023/09/17 09:10:39;;;;;;;66.75;48.97;;;;;;;18.11;100.00;101228.50;5064278;28;20058;-77
2023/09/17 09:13:05;;;;;;;68.22;47.70;;;;;;;18.05;100.00;101219.13;5061170;28;20482;-76
2023/09/17 09:15:31;;;;;;;69.82;48.88;;;;;;;18.00;100.00;101231.66;5064534;28;20024;-77
2023/09/17 09:17:56;;;;;;;72.93;48.88;;;;;;;17.88;100.00;101222.53;5063211;28;20039;-76
2023/09/17 09:20:22;;;;;;;69.22;48.33;;;;;;;17.90;100.00;101238.31;5062979;28;20037;-76
2023/09/17 09:22:48;;;;;;;71.03;48.20;;;;;;;17.82;100.00;101230.78;5064105;28;20048;-76
2023/09/17 09:25:15;;;;;;;73.35;48.45;;;;;;;17.88;100.00;101233.09;5062391;28;20112;-76
2023/09/17 09:27:40;;;;;;;80.45;48.67;;;;;;;17.83;100.00;101226.34;5063327;28;20028;-77
2023/09/17 09:30:11;;;;;;;78.32;51.50;;;;;;;17.88;100.00;101232.25;5064622;28;20027;-76
2023/09/17 09:32:37;;;;;;;76.75;49.78;;;;;;;17.90;100.00;101230.41;5063663;28;20056;-76
2023/09/17 09:35:03;;;;;;;76.72;49.00;;;;;;;17.80;100.00;101224.69;5063857;28;20047;-76
2023/09/17 09:37:29;;;;;;;76.22;48.05;;;;;;;17.81;100.00;101221.13;5063381;28;20465;-77
2023/09/17 09:39:55;;;;;;;70.05;47.75;;;;;;;17.81;100.00;101215.00;5064007;28;20036;-76
2023/09/17 09:42:22;;;;;;;81.03;49.80;;;;;;;17.76;100.00;101215.19;5063673;28;20033;-76
2023/09/17 09:44:50;;;;;;;80.05;49.13;;;;;;;17.73;100.00;101215.34;5063297;28;20365;-76
2023/09/17 09:47:16;;;;;;;78.07;49.13;;;;;;;17.72;100.00;101200.44;5057562;28;20037;-76
2023/09/17 09:49:44;;;;;;;81.20;48.45;;;;;;;17.81;100.00;101223.75;5060619;28;20040;-76
2023/09/17 09:52:13;;;;;;;81.68;50.55;;;;;;;17.76;100.00;101224.00;5064007;28;20030;-76
2023/09/17 09:54:43;;;;;;;78.97;49.30;;;;;;;17.78;100.00;101213.34;5060763;28;20098;-77
2023/09/17 09:57:16;;;;;;;92.75;52.08;;;;;;;17.90;100.00;101220.69;5063012;28;20024;-76
2023/09/17 09:59:46;;;;;;;87.00;52.78;;;;;;;17.98;100.00;101208.00;5061438;28;20025;-77
2023/09/17 10:02:13;;;;;;;84.93;52.08;;;;;;;18.07;100.00;101211.09;5047726;28;20099;-77
2023/09/17 10:04:39;;;;;;;82.47;49.17;;;;;;;18.11;100.00;101207.38;5062568;28;20036;-77
2023/09/17 10:07:05;;;;;;;85.13;50.78;;;;;;;18.26;100.00;101211.91;5062385;28;20033;-77
2023/09/17 10:09:30;;;;;;;88.72;53.33;;;;;;;18.34;100.00;101196.53;5059542;28;20065;-77
2023/09/17 10:11:57;;;;;;;86.18;51.08;;;;;;;18.59;100.00;101208.50;5060294;28;20115;-77
2023/09/17 10:14:25;;;;;;;80.72;50.05;;;;;;;18.82;100.00;101205.56;5066744;28;20029;-77
2023/09/17 10:16:51;;;;;;;74.43;48.53;;;;;;;19.16;100.00;101196.72;5055077;28;20016;-76
2023/09/17 10:19:20;;;;;;;74.22;46.47;;;;;;;19.40;100.00;101197.16;5066910;28;20548;-76
2023/09/17 10:21:49;;;;;;;70.20;47.05;;;;;;;19.52;100.00;101200.94;5059916;28;20025;-77
2023/09/17 10:24:17;;;;;;;62.63;43.30;;;;;;;19.66;100.00;101200.19;5065699;28;20025;-77
2023/09/17 10:26:44;;;;;;;64.07;41.28;;;;;;;19.82;100.00;101200.19;5060164;28;20082;-77
2023/09/17 10:29:14;;;;;;;57.03;40.47;;;;;;;19.91;100.00;101188.22;5060532;28;20025;-77
2023/09/17 10:31:40;;;;;;;58.58;41.88;;;;;;;20.00;100.00;101185.06;5051696;28;20167;-77
2023/09/17 10:34:08;;;;;;;59.08;41.67;;;;;;;20.08;100.00;101183.69;5060366;28;20048;-77
2023/09/17 10:36:36;;;;;;;57.97;40.20;;;;;;;20.21;100.00;101198.81;5068095;28;20422;-77
2023/09/17 10:39:03;;;;;;;51.65;37.85;;;;;;;20.19;100.00;101192.78;5059667;28;20037;-77
2023/09/17 10:41:32;;;;;;;49.88;37.47;;;;;;;20.13;100.00;101201.09;5068603;28;20025;-77
2023/09/17 10:43:59;;;;;;;51.83;37.40;;;;;;;20.16;100.00;101182.38;5060416;28;20032;-77
2023/09/17 10:46:27;;;;;;;52.28;37.75;;;;;;;20.06;100.00;101185.56;5059298;28;20499;-77
2023/09/17 10:48:53;;;;;;;53.53;36.78;;;;;;;20.11;100.00;101180.00;5065571;28;20393;-77
2023/09/17 10:51:19;;;;;;;55.95;38.75;;;;;;;20.25;100.00;101179.19;5055272;28;20024;-77
2023/09/17 10:53:45;;;;;;;53.72;37.17;;;;;;;20.26;100.00;101176.44;5065130;28;20482;-76
2023/09/17 10:56:12;;;;;;;52.22;38.38;;;;;;;20.43;100.00;101164.00;5060184;28;20017;-77
2023/09/17 10:58:41;;;;;;;50.05;37.70;;;;;;;20.68;100.00;101177.53;5064521;28;20020;-77